Weather at Skiff Aerodrome [CLOSED]

Public forecast

Using degrees Celsius for public forecast. Weather courtesy of forecast.io.

Closest aviation weather report (METAR) to Skiff Aerodrome

Closest report is Lethbridge County Airport, 40.4 nm (74.8 km) WNW.

2024/07/21 03:00 (retrieved 1 hour ago)

CYQL 210300Z 10004KT 25SM FEW270 25/19 A3022 RMK CI2 FU SLP218 DENSITY ALT 4600FT

Closest aviation forecast (TAF) to Skiff Aerodrome

Forecast is more than 12 hours old.

Closest forecast is Malmstrom Air Force Base, 122.1 nm (226.1 km) SSE.

2024/07/19 13:57 (retrieved 2 days ago)

TAF KGFA 191300Z 1913/2019 VRB06KT 9999 SKC QNH3017INS BECMG 1920/1921 35009KT 9999 FEW120 QNH3016INS TX33/1922Z TN16/2012Z